sensor_id;sensor_type;location;lat;lon;timestamp;P1;durP1;ratioP1;P2;durP2;ratioP2
13421;SDS011;6782;55.904;13.396;2023-05-07T00:02:41;3.43;;;2.80;;
13421;SDS011;6782;55.904;13.396;2023-05-07T00:05:30;4.67;;;3.50;;
13421;SDS011;6782;55.904;13.396;2023-05-07T00:08:17;5.27;;;3.47;;
13421;SDS011;6782;55.904;13.396;2023-05-07T00:11:04;5.23;;;3.10;;
13421;SDS011;6782;55.904;13.396;2023-05-07T00:13:51;5.57;;;3.47;;
13421;SDS011;6782;55.904;13.396;2023-05-07T00:16:39;7.67;;;3.50;;
13421;SDS011;6782;55.904;13.396;2023-05-07T00:19:28;5.63;;;3.30;;
13421;SDS011;6782;55.904;13.396;2023-05-07T00:22:15;3.97;;;3.17;;
13421;SDS011;6782;55.904;13.396;2023-05-07T00:25:02;5.10;;;3.23;;
13421;SDS011;6782;55.904;13.396;2023-05-07T00:27:50;3.50;;;3.20;;
13421;SDS011;6782;55.904;13.396;2023-05-07T00:30:38;4.07;;;3.30;;
13421;SDS011;6782;55.904;13.396;2023-05-07T00:33:25;7.07;;;3.30;;
13421;SDS011;6782;55.904;13.396;2023-05-07T00:36:15;4.50;;;3.53;;
13421;SDS011;6782;55.904;13.396;2023-05-07T00:39:02;3.83;;;3.43;;
13421;SDS011;6782;55.904;13.396;2023-05-07T00:41:50;4.23;;;3.83;;
13421;SDS011;6782;55.904;13.396;2023-05-07T00:44:38;4.03;;;3.43;;
13421;SDS011;6782;55.904;13.396;2023-05-07T00:47:25;4.40;;;3.47;;
13421;SDS011;6782;55.904;13.396;2023-05-07T00:50:13;4.33;;;3.40;;
13421;SDS011;6782;55.904;13.396;2023-05-07T00:53:02;5.00;;;3.70;;
13421;SDS011;6782;55.904;13.396;2023-05-07T00:55:50;5.33;;;3.37;;
13421;SDS011;6782;55.904;13.396;2023-05-07T00:58:38;4.10;;;3.60;;
13421;SDS011;6782;55.904;13.396;2023-05-07T01:01:25;3.73;;;3.37;;
13421;SDS011;6782;55.904;13.396;2023-05-07T01:04:12;3.37;;;3.07;;
13421;SDS011;6782;55.904;13.396;2023-05-07T01:07:00;5.60;;;3.87;;
13421;SDS011;6782;55.904;13.396;2023-05-07T01:09:50;5.77;;;4.23;;
13421;SDS011;6782;55.904;13.396;2023-05-07T01:12:38;6.47;;;3.60;;
13421;SDS011;6782;55.904;13.396;2023-05-07T01:15:26;5.43;;;3.30;;
13421;SDS011;6782;55.904;13.396;2023-05-07T01:18:13;6.63;;;3.90;;
13421;SDS011;6782;55.904;13.396;2023-05-07T01:21:01;5.97;;;3.90;;
13421;SDS011;6782;55.904;13.396;2023-05-07T01:23:53;5.30;;;3.50;;
13421;SDS011;6782;55.904;13.396;2023-05-07T01:26:41;4.40;;;3.77;;
13421;SDS011;6782;55.904;13.396;2023-05-07T01:29:29;4.60;;;3.10;;
13421;SDS011;6782;55.904;13.396;2023-05-07T01:32:17;4.77;;;4.27;;
13421;SDS011;6782;55.904;13.396;2023-05-07T01:35:09;4.20;;;3.80;;
13421;SDS011;6782;55.904;13.396;2023-05-07T01:37:59;5.40;;;3.70;;
13421;SDS011;6782;55.904;13.396;2023-05-07T01:40:51;4.80;;;4.00;;
13421;SDS011;6782;55.904;13.396;2023-05-07T01:43:40;6.23;;;4.13;;
13421;SDS011;6782;55.904;13.396;2023-05-07T01:46:29;6.90;;;4.07;;
13421;SDS011;6782;55.904;13.396;2023-05-07T01:49:18;8.43;;;3.93;;
13421;SDS011;6782;55.904;13.396;2023-05-07T01:52:05;7.30;;;3.70;;
13421;SDS011;6782;55.904;13.396;2023-05-07T01:54:53;5.97;;;4.03;;
13421;SDS011;6782;55.904;13.396;2023-05-07T01:57:41;5.37;;;3.97;;
13421;SDS011;6782;55.904;13.396;2023-05-07T02:00:29;5.20;;;4.03;;
13421;SDS011;6782;55.904;13.396;2023-05-07T02:03:16;6.20;;;3.83;;
13421;SDS011;6782;55.904;13.396;2023-05-07T02:06:03;5.97;;;3.90;;
13421;SDS011;6782;55.904;13.396;2023-05-07T02:08:50;6.80;;;3.77;;
13421;SDS011;6782;55.904;13.396;2023-05-07T02:11:38;3.83;;;3.40;;
13421;SDS011;6782;55.904;13.396;2023-05-07T02:14:27;4.63;;;4.13;;
13421;SDS011;6782;55.904;13.396;2023-05-07T02:17:14;4.77;;;3.33;;
13421;SDS011;6782;55.904;13.396;2023-05-07T02:20:02;4.17;;;3.40;;
13421;SDS011;6782;55.904;13.396;2023-05-07T02:22:49;5.57;;;3.57;;
13421;SDS011;6782;55.904;13.396;2023-05-07T02:25:37;5.43;;;4.23;;
13421;SDS011;6782;55.904;13.396;2023-05-07T02:28:24;4.60;;;3.33;;
13421;SDS011;6782;55.904;13.396;2023-05-07T02:31:13;6.50;;;3.50;;
13421;SDS011;6782;55.904;13.396;2023-05-07T02:34:01;4.67;;;3.60;;
13421;SDS011;6782;55.904;13.396;2023-05-07T02:36:49;4.27;;;3.67;;
13421;SDS011;6782;55.904;13.396;2023-05-07T02:39:36;5.93;;;3.53;;
13421;SDS011;6782;55.904;13.396;2023-05-07T02:42:23;5.40;;;3.60;;
13421;SDS011;6782;55.904;13.396;2023-05-07T02:45:10;5.63;;;3.60;;
13421;SDS011;6782;55.904;13.396;2023-05-07T02:47:59;7.00;;;4.00;;
13421;SDS011;6782;55.904;13.396;2023-05-07T02:50:46;8.17;;;3.97;;
13421;SDS011;6782;55.904;13.396;2023-05-07T02:53:33;4.00;;;3.40;;
13421;SDS011;6782;55.904;13.396;2023-05-07T02:56:20;4.97;;;3.50;;
13421;SDS011;6782;55.904;13.396;2023-05-07T02:59:07;4.83;;;3.40;;
13421;SDS011;6782;55.904;13.396;2023-05-07T03:01:54;5.13;;;3.70;;
13421;SDS011;6782;55.904;13.396;2023-05-07T03:04:43;3.77;;;3.40;;
13421;SDS011;6782;55.904;13.396;2023-05-07T03:07:30;5.60;;;3.80;;
13421;SDS011;6782;55.904;13.396;2023-05-07T03:10:18;4.47;;;3.83;;
13421;SDS011;6782;55.904;13.396;2023-05-07T03:13:05;5.57;;;3.40;;
13421;SDS011;6782;55.904;13.396;2023-05-07T03:15:52;4.27;;;3.60;;
13421;SDS011;6782;55.904;13.396;2023-05-07T03:18:39;6.23;;;3.70;;
13421;SDS011;6782;55.904;13.396;2023-05-07T03:21:28;7.63;;;3.53;;
13421;SDS011;6782;55.904;13.396;2023-05-07T03:24:16;4.77;;;4.00;;
13421;SDS011;6782;55.904;13.396;2023-05-07T03:27:03;4.73;;;3.87;;
13421;SDS011;6782;55.904;13.396;2023-05-07T03:29:50;7.07;;;3.80;;
13421;SDS011;6782;55.904;13.396;2023-05-07T03:32:37;6.13;;;3.90;;
13421;SDS011;6782;55.904;13.396;2023-05-07T03:35:24;6.17;;;3.90;;
13421;SDS011;6782;55.904;13.396;2023-05-07T03:38:13;5.33;;;3.53;;
13421;SDS011;6782;55.904;13.396;2023-05-07T03:41:00;7.13;;;4.30;;
13421;SDS011;6782;55.904;13.396;2023-05-07T03:43:47;4.40;;;3.40;;
13421;SDS011;6782;55.904;13.396;2023-05-07T03:46:35;5.90;;;3.43;;
13421;SDS011;6782;55.904;13.396;2023-05-07T03:49:22;5.03;;;3.63;;
13421;SDS011;6782;55.904;13.396;2023-05-07T03:52:09;5.17;;;3.70;;
13421;SDS011;6782;55.904;13.396;2023-05-07T03:54:58;5.70;;;4.23;;
13421;SDS011;6782;55.904;13.396;2023-05-07T03:57:45;5.53;;;4.10;;
13421;SDS011;6782;55.904;13.396;2023-05-07T04:00:33;6.93;;;4.13;;
13421;SDS011;6782;55.904;13.396;2023-05-07T04:03:23;4.63;;;4.13;;
13421;SDS011;6782;55.904;13.396;2023-05-07T04:06:11;5.17;;;3.23;;
13421;SDS011;6782;55.904;13.396;2023-05-07T04:08:58;6.07;;;3.90;;
13421;SDS011;6782;55.904;13.396;2023-05-07T04:11:47;6.03;;;3.60;;
13421;SDS011;6782;55.904;13.396;2023-05-07T04:14:34;4.43;;;3.27;;
13421;SDS011;6782;55.904;13.396;2023-05-07T04:17:21;4.43;;;3.40;;
13421;SDS011;6782;55.904;13.396;2023-05-07T04:20:08;4.07;;;3.10;;
13421;SDS011;6782;55.904;13.396;2023-05-07T04:22:56;3.40;;;3.10;;
13421;SDS011;6782;55.904;13.396;2023-05-07T04:25:44;3.17;;;2.87;;
13421;SDS011;6782;55.904;13.396;2023-05-07T04:28:33;3.70;;;2.97;;
13421;SDS011;6782;55.904;13.396;2023-05-07T04:31:21;4.13;;;2.90;;
13421;SDS011;6782;55.904;13.396;2023-05-07T04:34:08;3.70;;;3.20;;
13421;SDS011;6782;55.904;13.396;2023-05-07T04:36:57;5.00;;;3.23;;
13421;SDS011;6782;55.904;13.396;2023-05-07T04:39:46;3.70;;;3.10;;
13421;SDS011;6782;55.904;13.396;2023-05-07T04:42:33;4.70;;;3.17;;
13421;SDS011;6782;55.904;13.396;2023-05-07T04:45:22;4.87;;;3.40;;
13421;SDS011;6782;55.904;13.396;2023-05-07T04:48:10;4.90;;;3.17;;
13421;SDS011;6782;55.904;13.396;2023-05-07T04:50:57;3.00;;;2.70;;
13421;SDS011;6782;55.904;13.396;2023-05-07T04:53:44;3.67;;;2.90;;
13421;SDS011;6782;55.904;13.396;2023-05-07T04:56:32;3.30;;;2.60;;
13421;SDS011;6782;55.904;13.396;2023-05-07T04:59:19;3.33;;;3.03;;
13421;SDS011;6782;55.904;13.396;2023-05-07T05:02:09;3.77;;;3.00;;
13421;SDS011;6782;55.904;13.396;2023-05-07T05:04:57;4.73;;;3.07;;
13421;SDS011;6782;55.904;13.396;2023-05-07T05:07:45;3.27;;;2.90;;
13421;SDS011;6782;55.904;13.396;2023-05-07T05:10:32;4.10;;;3.20;;
13421;SDS011;6782;55.904;13.396;2023-05-07T05:13:20;4.00;;;3.07;;
13421;SDS011;6782;55.904;13.396;2023-05-07T05:16:07;4.53;;;2.87;;
13421;SDS011;6782;55.904;13.396;2023-05-07T05:18:56;5.03;;;3.00;;
13421;SDS011;6782;55.904;13.396;2023-05-07T05:21:43;4.00;;;2.73;;
13421;SDS011;6782;55.904;13.396;2023-05-07T05:24:31;3.13;;;2.80;;
13421;SDS011;6782;55.904;13.396;2023-05-07T05:27:18;4.03;;;2.90;;
13421;SDS011;6782;55.904;13.396;2023-05-07T05:30:07;4.37;;;3.00;;
13421;SDS011;6782;55.904;13.396;2023-05-07T05:32:55;3.60;;;2.97;;
13421;SDS011;6782;55.904;13.396;2023-05-07T05:35:44;5.43;;;2.83;;
13421;SDS011;6782;55.904;13.396;2023-05-07T05:38:31;3.57;;;2.70;;
13421;SDS011;6782;55.904;13.396;2023-05-07T05:41:18;3.70;;;2.60;;
13421;SDS011;6782;55.904;13.396;2023-05-07T05:44:06;4.87;;;2.80;;
13421;SDS011;6782;55.904;13.396;2023-05-07T05:46:53;3.17;;;2.70;;
13421;SDS011;6782;55.904;13.396;2023-05-07T05:49:42;3.43;;;2.63;;
13421;SDS011;6782;55.904;13.396;2023-05-07T05:52:32;3.03;;;2.67;;
13421;SDS011;6782;55.904;13.396;2023-05-07T05:55:19;4.17;;;2.47;;
13421;SDS011;6782;55.904;13.396;2023-05-07T05:58:07;4.57;;;2.80;;
13421;SDS011;6782;55.904;13.396;2023-05-07T06:00:56;6.63;;;2.97;;
13421;SDS011;6782;55.904;13.396;2023-05-07T06:03:43;5.53;;;2.67;;
13421;SDS011;6782;55.904;13.396;2023-05-07T06:06:30;3.93;;;2.63;;
13421;SDS011;6782;55.904;13.396;2023-05-07T06:09:19;3.30;;;2.77;;
13421;SDS011;6782;55.904;13.396;2023-05-07T06:12:07;6.17;;;3.03;;
13421;SDS011;6782;55.904;13.396;2023-05-07T06:14:54;3.57;;;2.67;;
13421;SDS011;6782;55.904;13.396;2023-05-07T06:17:41;3.50;;;2.90;;
13421;SDS011;6782;55.904;13.396;2023-05-07T06:20:28;5.17;;;2.60;;
13421;SDS011;6782;55.904;13.396;2023-05-07T06:23:15;4.00;;;2.80;;
13421;SDS011;6782;55.904;13.396;2023-05-07T06:26:04;6.23;;;2.93;;
13421;SDS011;6782;55.904;13.396;2023-05-07T06:28:52;3.73;;;2.87;;
13421;SDS011;6782;55.904;13.396;2023-05-07T06:31:39;5.67;;;2.97;;
13421;SDS011;6782;55.904;13.396;2023-05-07T06:34:26;3.73;;;2.77;;
13421;SDS011;6782;55.904;13.396;2023-05-07T06:37:14;3.07;;;2.73;;
13421;SDS011;6782;55.904;13.396;2023-05-07T06:40:01;3.00;;;2.67;;
13421;SDS011;6782;55.904;13.396;2023-05-07T06:42:51;4.30;;;2.57;;
13421;SDS011;6782;55.904;13.396;2023-05-07T06:45:38;3.70;;;2.50;;
13421;SDS011;6782;55.904;13.396;2023-05-07T06:48:25;4.07;;;2.97;;
13421;SDS011;6782;55.904;13.396;2023-05-07T06:51:13;5.23;;;3.07;;
13421;SDS011;6782;55.904;13.396;2023-05-07T06:54:00;2.90;;;2.60;;
13421;SDS011;6782;55.904;13.396;2023-05-07T06:56:49;3.83;;;2.90;;
13421;SDS011;6782;55.904;13.396;2023-05-07T06:59:39;5.33;;;2.70;;
13421;SDS011;6782;55.904;13.396;2023-05-07T07:02:26;5.30;;;2.93;;
13421;SDS011;6782;55.904;13.396;2023-05-07T07:05:13;4.37;;;2.70;;
13421;SDS011;6782;55.904;13.396;2023-05-07T07:08:01;7.50;;;2.70;;
13421;SDS011;6782;55.904;13.396;2023-05-07T07:10:48;5.93;;;2.90;;
13421;SDS011;6782;55.904;13.396;2023-05-07T07:13:36;2.87;;;2.67;;
13421;SDS011;6782;55.904;13.396;2023-05-07T07:16:24;4.40;;;2.50;;
13421;SDS011;6782;55.904;13.396;2023-05-07T07:19:12;5.20;;;2.93;;
13421;SDS011;6782;55.904;13.396;2023-05-07T07:22:00;3.73;;;3.10;;
13421;SDS011;6782;55.904;13.396;2023-05-07T07:24:47;4.73;;;2.50;;
13421;SDS011;6782;55.904;13.396;2023-05-07T07:27:36;3.20;;;2.73;;
13421;SDS011;6782;55.904;13.396;2023-05-07T07:30:25;3.73;;;2.27;;
13421;SDS011;6782;55.904;13.396;2023-05-07T07:33:14;2.77;;;2.53;;
13421;SDS011;6782;55.904;13.396;2023-05-07T07:36:02;4.53;;;2.50;;
13421;SDS011;6782;55.904;13.396;2023-05-07T07:38:50;5.07;;;2.67;;
13421;SDS011;6782;55.904;13.396;2023-05-07T07:41:38;2.30;;;2.07;;
13421;SDS011;6782;55.904;13.396;2023-05-07T07:44:25;4.00;;;2.37;;
13421;SDS011;6782;55.904;13.396;2023-05-07T07:47:12;2.73;;;2.23;;
13421;SDS011;6782;55.904;13.396;2023-05-07T07:50:00;4.07;;;2.53;;
13421;SDS011;6782;55.904;13.396;2023-05-07T07:52:48;4.70;;;2.20;;
13421;SDS011;6782;55.904;13.396;2023-05-07T07:55:37;2.60;;;2.30;;
13421;SDS011;6782;55.904;13.396;2023-05-07T07:58:25;2.93;;;2.30;;
13421;SDS011;6782;55.904;13.396;2023-05-07T08:01:12;3.27;;;2.17;;
13421;SDS011;6782;55.904;13.396;2023-05-07T08:04:00;2.97;;;2.63;;
13421;SDS011;6782;55.904;13.396;2023-05-07T08:06:50;2.70;;;2.07;;
13421;SDS011;6782;55.904;13.396;2023-05-07T08:09:37;4.63;;;2.60;;
13421;SDS011;6782;55.904;13.396;2023-05-07T08:12:25;3.17;;;2.47;;
13421;SDS011;6782;55.904;13.396;2023-05-07T08:15:12;3.33;;;2.17;;
13421;SDS011;6782;55.904;13.396;2023-05-07T08:17:59;3.42;;;2.20;;
13421;SDS011;6782;55.904;13.396;2023-05-07T08:20:46;5.13;;;2.20;;
13421;SDS011;6782;55.904;13.396;2023-05-07T08:23:35;3.67;;;2.58;;
13421;SDS011;6782;55.904;13.396;2023-05-07T08:26:23;2.50;;;2.13;;
13421;SDS011;6782;55.904;13.396;2023-05-07T08:29:10;4.25;;;2.40;;
13421;SDS011;6782;55.904;13.396;2023-05-07T08:31:57;3.67;;;2.25;;
13421;SDS011;6782;55.904;13.396;2023-05-07T08:34:45;4.05;;;2.78;;
13421;SDS011;6782;55.904;13.396;2023-05-07T08:37:33;3.78;;;2.65;;
13421;SDS011;6782;55.904;13.396;2023-05-07T08:40:22;4.70;;;2.40;;
13421;SDS011;6782;55.904;13.396;2023-05-07T08:43:12;2.65;;;2.20;;
13421;SDS011;6782;55.904;13.396;2023-05-07T08:46:01;3.88;;;2.58;;
13421;SDS011;6782;55.904;13.396;2023-05-07T08:48:50;3.25;;;2.20;;
13421;SDS011;6782;55.904;13.396;2023-05-07T08:51:38;3.45;;;2.53;;
13421;SDS011;6782;55.904;13.396;2023-05-07T08:54:25;2.92;;;2.65;;
13421;SDS011;6782;55.904;13.396;2023-05-07T08:56:58;3.45;;;2.20;;
13421;SDS011;6782;55.904;13.396;2023-05-07T08:59:25;3.63;;;2.70;;
13421;SDS011;6782;55.904;13.396;2023-05-07T09:01:52;4.03;;;2.70;;
13421;SDS011;6782;55.904;13.396;2023-05-07T09:04:19;2.90;;;2.67;;
13421;SDS011;6782;55.904;13.396;2023-05-07T09:07:05;3.47;;;2.70;;
13421;SDS011;6782;55.904;13.396;2023-05-07T09:09:52;3.03;;;2.72;;
13421;SDS011;6782;55.904;13.396;2023-05-07T09:12:41;3.45;;;2.55;;
13421;SDS011;6782;55.904;13.396;2023-05-07T09:15:28;3.45;;;2.55;;
13421;SDS011;6782;55.904;13.396;2023-05-07T09:18:15;3.13;;;2.83;;
13421;SDS011;6782;55.904;13.396;2023-05-07T09:21:02;3.33;;;2.90;;
13421;SDS011;6782;55.904;13.396;2023-05-07T09:23:50;3.65;;;2.85;;
13421;SDS011;6782;55.904;13.396;2023-05-07T09:26:38;6.72;;;3.08;;
13421;SDS011;6782;55.904;13.396;2023-05-07T09:29:28;3.97;;;2.75;;
13421;SDS011;6782;55.904;13.396;2023-05-07T09:32:15;4.68;;;3.17;;
13421;SDS011;6782;55.904;13.396;2023-05-07T09:35:02;3.47;;;3.17;;
13421;SDS011;6782;55.904;13.396;2023-05-07T09:37:50;3.28;;;2.35;;
13421;SDS011;6782;55.904;13.396;2023-05-07T09:40:37;3.15;;;2.80;;
13421;SDS011;6782;55.904;13.396;2023-05-07T09:43:25;3.55;;;3.20;;
13421;SDS011;6782;55.904;13.396;2023-05-07T09:46:14;4.57;;;2.63;;
13421;SDS011;6782;55.904;13.396;2023-05-07T09:49:02;3.95;;;2.92;;
13421;SDS011;6782;55.904;13.396;2023-05-07T09:51:52;2.85;;;2.55;;
13421;SDS011;6782;55.904;13.396;2023-05-07T09:54:40;4.72;;;3.00;;
13421;SDS011;6782;55.904;13.396;2023-05-07T09:57:29;5.55;;;3.10;;
13421;SDS011;6782;55.904;13.396;2023-05-07T10:00:18;3.85;;;2.83;;
13421;SDS011;6782;55.904;13.396;2023-05-07T10:03:09;3.40;;;2.35;;
13421;SDS011;6782;55.904;13.396;2023-05-07T10:05:57;2.55;;;2.35;;
13421;SDS011;6782;55.904;13.396;2023-05-07T10:08:45;3.50;;;2.80;;
13421;SDS011;6782;55.904;13.396;2023-05-07T10:11:33;2.92;;;2.63;;
13421;SDS011;6782;55.904;13.396;2023-05-07T10:14:21;2.97;;;2.60;;
13421;SDS011;6782;55.904;13.396;2023-05-07T10:17:09;4.15;;;3.00;;
13421;SDS011;6782;55.904;13.396;2023-05-07T10:19:59;4.25;;;2.90;;
13421;SDS011;6782;55.904;13.396;2023-05-07T10:22:47;3.80;;;2.60;;
13421;SDS011;6782;55.904;13.396;2023-05-07T10:25:35;2.75;;;2.50;;
13421;SDS011;6782;55.904;13.396;2023-05-07T10:28:23;4.38;;;2.88;;
13421;SDS011;6782;55.904;13.396;2023-05-07T10:31:15;3.53;;;2.85;;
13421;SDS011;6782;55.904;13.396;2023-05-07T10:34:14;4.30;;;2.97;;
13421;SDS011;6782;55.904;13.396;2023-05-07T10:37:00;4.63;;;2.97;;
13421;SDS011;6782;55.904;13.396;2023-05-07T10:39:47;4.07;;;2.92;;
13421;SDS011;6782;55.904;13.396;2023-05-07T10:42:33;4.05;;;3.03;;
13421;SDS011;6782;55.904;13.396;2023-05-07T10:45:21;3.80;;;3.00;;
13421;SDS011;6782;55.904;13.396;2023-05-07T10:48:11;4.55;;;3.30;;
13421;SDS011;6782;55.904;13.396;2023-05-07T10:50:39;5.93;;;3.30;;
13421;SDS011;6782;55.904;13.396;2023-05-07T10:58:53;4.38;;;3.28;;
13421;SDS011;6782;55.904;13.396;2023-05-07T11:04:16;3.67;;;3.20;;
13421;SDS011;6782;55.904;13.396;2023-05-07T11:09:57;4.00;;;3.58;;
13421;SDS011;6782;55.904;13.396;2023-05-07T11:15:33;4.70;;;3.15;;
13421;SDS011;6782;55.904;13.396;2023-05-07T11:18:18;3.95;;;3.50;;
13421;SDS011;6782;55.904;13.396;2023-05-07T11:20:49;3.40;;;3.00;;
13421;SDS011;6782;55.904;13.396;2023-05-07T11:26:27;4.22;;;3.45;;
13421;SDS011;6782;55.904;13.396;2023-05-07T11:28:56;4.95;;;3.15;;
13421;SDS011;6782;55.904;13.396;2023-05-07T11:31:26;4.53;;;3.50;;
13421;SDS011;6782;55.904;13.396;2023-05-07T11:33:55;3.75;;;2.90;;
13421;SDS011;6782;55.904;13.396;2023-05-07T11:36:23;3.83;;;3.42;;
13421;SDS011;6782;55.904;13.396;2023-05-07T11:38:51;3.85;;;3.42;;
13421;SDS011;6782;55.904;13.396;2023-05-07T11:41:19;3.80;;;3.40;;
13421;SDS011;6782;55.904;13.396;2023-05-07T11:44:07;3.83;;;3.50;;
13421;SDS011;6782;55.904;13.396;2023-05-07T11:46:34;3.70;;;3.10;;
13421;SDS011;6782;55.904;13.396;2023-05-07T11:49:02;6.00;;;3.40;;
13421;SDS011;6782;55.904;13.396;2023-05-07T11:51:29;3.90;;;3.60;;
13421;SDS011;6782;55.904;13.396;2023-05-07T11:53:57;4.32;;;3.22;;
13421;SDS011;6782;55.904;13.396;2023-05-07T11:56:24;3.47;;;3.17;;
13421;SDS011;6782;55.904;13.396;2023-05-07T11:58:51;3.60;;;3.25;;
13421;SDS011;6782;55.904;13.396;2023-05-07T12:01:20;5.22;;;3.47;;
13421;SDS011;6782;55.904;13.396;2023-05-07T12:03:47;4.10;;;3.58;;
13421;SDS011;6782;55.904;13.396;2023-05-07T12:06:15;4.25;;;3.22;;
13421;SDS011;6782;55.904;13.396;2023-05-07T12:08:43;3.85;;;3.42;;
13421;SDS011;6782;55.904;13.396;2023-05-07T12:11:13;4.20;;;3.40;;
13421;SDS011;6782;55.904;13.396;2023-05-07T12:13:43;4.07;;;3.42;;
13421;SDS011;6782;55.904;13.396;2023-05-07T12:16:11;4.03;;;3.25;;
13421;SDS011;6782;55.904;13.396;2023-05-07T12:18:40;5.05;;;3.28;;
13421;SDS011;6782;55.904;13.396;2023-05-07T12:21:08;4.88;;;3.28;;
13421;SDS011;6782;55.904;13.396;2023-05-07T12:23:36;5.07;;;3.65;;
13421;SDS011;6782;55.904;13.396;2023-05-07T12:26:04;4.78;;;3.58;;
13421;SDS011;6782;55.904;13.396;2023-05-07T12:28:35;3.63;;;3.15;;
13421;SDS011;6782;55.904;13.396;2023-05-07T12:31:04;3.88;;;2.95;;
13421;SDS011;6782;55.904;13.396;2023-05-07T12:33:34;6.20;;;3.65;;
13421;SDS011;6782;55.904;13.396;2023-05-07T12:36:07;4.28;;;3.50;;
13421;SDS011;6782;55.904;13.396;2023-05-07T12:38:35;4.25;;;3.42;;
13421;SDS011;6782;55.904;13.396;2023-05-07T12:41:07;4.72;;;3.65;;
13421;SDS011;6782;55.904;13.396;2023-05-07T12:43:35;5.93;;;3.58;;
13421;SDS011;6782;55.904;13.396;2023-05-07T12:46:04;3.65;;;3.35;;
13421;SDS011;6782;55.904;13.396;2023-05-07T12:48:32;5.22;;;3.50;;
13421;SDS011;6782;55.904;13.396;2023-05-07T12:51:00;3.72;;;3.33;;
13421;SDS011;6782;55.904;13.396;2023-05-07T12:53:29;4.85;;;3.35;;
13421;SDS011;6782;55.904;13.396;2023-05-07T12:55:58;4.18;;;3.28;;
13421;SDS011;6782;55.904;13.396;2023-05-07T12:58:26;6.80;;;3.65;;
13421;SDS011;6782;55.904;13.396;2023-05-07T13:00:55;4.20;;;3.47;;
13421;SDS011;6782;55.904;13.396;2023-05-07T13:03:24;4.75;;;3.45;;
13421;SDS011;6782;55.904;13.396;2023-05-07T13:05:53;3.65;;;3.17;;
13421;SDS011;6782;55.904;13.396;2023-05-07T13:08:25;3.55;;;3.25;;
13421;SDS011;6782;55.904;13.396;2023-05-07T13:10:55;4.20;;;3.70;;
13421;SDS011;6782;55.904;13.396;2023-05-07T13:13:23;4.57;;;3.20;;
13421;SDS011;6782;55.904;13.396;2023-05-07T13:15:50;5.00;;;3.42;;
13421;SDS011;6782;55.904;13.396;2023-05-07T13:18:17;4.20;;;2.90;;
13421;SDS011;6782;55.904;13.396;2023-05-07T13:20:45;4.88;;;3.38;;
13421;SDS011;6782;55.904;13.396;2023-05-07T13:23:12;4.25;;;3.65;;
13421;SDS011;6782;55.904;13.396;2023-05-07T13:25:39;3.47;;;3.10;;
13421;SDS011;6782;55.904;13.396;2023-05-07T13:28:08;4.05;;;3.45;;
13421;SDS011;6782;55.904;13.396;2023-05-07T13:30:35;7.45;;;3.50;;
13421;SDS011;6782;55.904;13.396;2023-05-07T13:33:02;5.47;;;3.40;;
13421;SDS011;6782;55.904;13.396;2023-05-07T13:35:30;4.30;;;3.15;;
13421;SDS011;6782;55.904;13.396;2023-05-07T13:37:57;5.13;;;3.38;;
13421;SDS011;6782;55.904;13.396;2023-05-07T13:40:23;4.05;;;3.58;;
13421;SDS011;6782;55.904;13.396;2023-05-07T13:42:51;4.97;;;3.40;;
13421;SDS011;6782;55.904;13.396;2023-05-07T13:45:19;5.00;;;3.90;;
13421;SDS011;6782;55.904;13.396;2023-05-07T13:47:47;3.53;;;3.22;;
13421;SDS011;6782;55.904;13.396;2023-05-07T13:50:14;4.13;;;3.47;;
13421;SDS011;6782;55.904;13.396;2023-05-07T13:52:42;6.47;;;4.03;;
13421;SDS011;6782;55.904;13.396;2023-05-07T13:55:15;4.90;;;3.65;;
13421;SDS011;6782;55.904;13.396;2023-05-07T13:57:43;3.95;;;3.65;;
13421;SDS011;6782;55.904;13.396;2023-05-07T14:00:11;4.25;;;3.85;;
13421;SDS011;6782;55.904;13.396;2023-05-07T14:02:40;4.05;;;3.63;;
13421;SDS011;6782;55.904;13.396;2023-05-07T14:05:07;4.97;;;3.33;;
13421;SDS011;6782;55.904;13.396;2023-05-07T14:07:35;3.70;;;3.40;;
13421;SDS011;6782;55.904;13.396;2023-05-07T14:10:03;5.97;;;4.05;;
13421;SDS011;6782;55.904;13.396;2023-05-07T14:12:31;4.20;;;3.80;;
13421;SDS011;6782;55.904;13.396;2023-05-07T14:14:59;5.20;;;3.90;;
13421;SDS011;6782;55.904;13.396;2023-05-07T14:17:26;5.57;;;4.05;;
13421;SDS011;6782;55.904;13.396;2023-05-07T14:19:55;4.57;;;3.97;;
13421;SDS011;6782;55.904;13.396;2023-05-07T14:22:22;6.68;;;4.03;;
13421;SDS011;6782;55.904;13.396;2023-05-07T14:24:49;5.53;;;3.92;;
13421;SDS011;6782;55.904;13.396;2023-05-07T14:27:18;4.50;;;3.70;;
13421;SDS011;6782;55.904;13.396;2023-05-07T14:29:45;4.10;;;3.70;;
13421;SDS011;6782;55.904;13.396;2023-05-07T14:32:16;10.18;;;6.88;;
13421;SDS011;6782;55.904;13.396;2023-05-07T14:34:44;5.43;;;4.10;;
13421;SDS011;6782;55.904;13.396;2023-05-07T14:37:13;4.90;;;3.90;;
13421;SDS011;6782;55.904;13.396;2023-05-07T14:39:41;4.35;;;3.83;;
13421;SDS011;6782;55.904;13.396;2023-05-07T14:42:07;5.18;;;3.95;;
13421;SDS011;6782;55.904;13.396;2023-05-07T14:44:35;3.75;;;3.45;;
13421;SDS011;6782;55.904;13.396;2023-05-07T14:47:02;4.32;;;3.63;;
13421;SDS011;6782;55.904;13.396;2023-05-07T14:49:30;4.38;;;3.83;;
13421;SDS011;6782;55.904;13.396;2023-05-07T14:51:58;4.50;;;3.47;;
13421;SDS011;6782;55.904;13.396;2023-05-07T14:54:27;6.22;;;3.97;;
13421;SDS011;6782;55.904;13.396;2023-05-07T14:56:54;5.50;;;3.97;;
13421;SDS011;6782;55.904;13.396;2023-05-07T14:59:22;6.25;;;3.60;;
13421;SDS011;6782;55.904;13.396;2023-05-07T15:01:50;5.20;;;3.70;;
13421;SDS011;6782;55.904;13.396;2023-05-07T15:04:17;5.03;;;3.15;;
13421;SDS011;6782;55.904;13.396;2023-05-07T15:06:44;5.40;;;3.60;;
13421;SDS011;6782;55.904;13.396;2023-05-07T15:09:11;5.05;;;3.33;;
13421;SDS011;6782;55.904;13.396;2023-05-07T15:11:40;6.45;;;4.00;;
13421;SDS011;6782;55.904;13.396;2023-05-07T15:14:07;5.25;;;3.70;;
13421;SDS011;6782;55.904;13.396;2023-05-07T15:16:34;4.93;;;3.42;;
13421;SDS011;6782;55.904;13.396;2023-05-07T15:19:01;4.43;;;2.97;;
13421;SDS011;6782;55.904;13.396;2023-05-07T15:21:28;5.50;;;3.72;;
13421;SDS011;6782;55.904;13.396;2023-05-07T15:23:56;4.05;;;3.22;;
13421;SDS011;6782;55.904;13.396;2023-05-07T15:26:23;5.38;;;3.63;;
13421;SDS011;6782;55.904;13.396;2023-05-07T15:28:52;4.75;;;3.20;;
13421;SDS011;6782;55.904;13.396;2023-05-07T15:31:22;3.83;;;3.42;;
13421;SDS011;6782;55.904;13.396;2023-05-07T15:33:49;4.55;;;3.70;;
13421;SDS011;6782;55.904;13.396;2023-05-07T15:36:17;3.55;;;3.17;;
13421;SDS011;6782;55.904;13.396;2023-05-07T15:38:44;4.78;;;3.30;;
13421;SDS011;6782;55.904;13.396;2023-05-07T15:41:11;3.30;;;3.00;;
13421;SDS011;6782;55.904;13.396;2023-05-07T15:43:43;3.80;;;3.20;;
13421;SDS011;6782;55.904;13.396;2023-05-07T15:46:17;3.63;;;3.00;;
13421;SDS011;6782;55.904;13.396;2023-05-07T15:48:50;5.13;;;4.10;;
13421;SDS011;6782;55.904;13.396;2023-05-07T15:51:18;3.88;;;3.30;;
13421;SDS011;6782;55.904;13.396;2023-05-07T15:53:47;5.63;;;3.20;;
13421;SDS011;6782;55.904;13.396;2023-05-07T15:56:18;5.50;;;3.10;;
13421;SDS011;6782;55.904;13.396;2023-05-07T15:58:59;4.22;;;3.45;;
13421;SDS011;6782;55.904;13.396;2023-05-07T16:01:28;5.88;;;3.30;;
13421;SDS011;6782;55.904;13.396;2023-05-07T16:03:55;7.30;;;3.05;;
13421;SDS011;6782;55.904;13.396;2023-05-07T16:06:22;5.20;;;3.50;;
13421;SDS011;6782;55.904;13.396;2023-05-07T16:08:50;5.90;;;3.47;;
13421;SDS011;6782;55.904;13.396;2023-05-07T16:11:17;6.53;;;3.58;;
13421;SDS011;6782;55.904;13.396;2023-05-07T16:13:51;5.88;;;3.63;;
13421;SDS011;6782;55.904;13.396;2023-05-07T16:16:18;3.58;;;3.28;;
13421;SDS011;6782;55.904;13.396;2023-05-07T16:18:47;4.15;;;2.90;;
13421;SDS011;6782;55.904;13.396;2023-05-07T16:21:15;3.97;;;3.05;;
13421;SDS011;6782;55.904;13.396;2023-05-07T16:23:42;3.97;;;3.15;;
13421;SDS011;6782;55.904;13.396;2023-05-07T16:26:09;5.50;;;2.83;;
13421;SDS011;6782;55.904;13.396;2023-05-07T16:28:38;3.42;;;2.90;;